createdAt,value
2023-03-20T00:01:12.802Z,78.46
2023-03-20T00:03:40.047Z,78.64
2023-03-20T00:06:13.374Z,78.17
2023-03-20T00:08:40.298Z,78.10
2023-03-20T00:11:11.292Z,78.65
2023-03-20T00:13:38.379Z,78.54
2023-03-20T00:16:05.940Z,78.68
2023-03-20T00:18:33.294Z,78.31
2023-03-20T00:21:00.911Z,78.36
2023-03-20T00:23:28.302Z,78.64
2023-03-20T00:25:55.973Z,79.37
2023-03-20T00:28:41.037Z,79.19
2023-03-20T00:31:20.449Z,79.52
2023-03-20T00:33:47.350Z,79.46
2023-03-20T00:36:14.344Z,79.50
2023-03-20T00:38:41.288Z,79.46
2023-03-20T00:41:26.665Z,79.73
2023-03-20T00:44:01.398Z,79.70
2023-03-20T00:46:29.439Z,79.80
2023-03-20T00:48:56.416Z,79.40
2023-03-20T00:51:23.587Z,79.30
2023-03-20T00:53:52.187Z,79.68
2023-03-20T00:56:25.098Z,79.75
2023-03-20T00:58:52.179Z,79.50
2023-03-20T01:01:19.132Z,79.50
2023-03-20T01:03:46.180Z,79.00
2023-03-20T01:06:15.260Z,79.15
2023-03-20T01:08:42.173Z,78.93
2023-03-20T01:11:10.424Z,78.74
2023-03-20T01:13:38.623Z,78.18
2023-03-20T01:16:05.753Z,77.82
2023-03-20T01:18:32.790Z,77.09
2023-03-20T01:20:59.704Z,75.44
2023-03-20T01:23:27.145Z,74.86
2023-03-20T01:25:54.105Z,75.79
2023-03-20T01:28:24.311Z,75.95
2023-03-20T01:30:51.543Z,75.73
2023-03-20T01:33:19.908Z,75.42
2023-03-20T01:35:51.678Z,75.73
2023-03-20T01:38:23.913Z,75.88
2023-03-20T01:40:58.781Z,75.93
2023-03-20T01:43:29.050Z,76.15
2023-03-20T01:46:05.080Z,75.68
2023-03-20T01:48:49.901Z,75.58
2023-03-20T01:51:18.185Z,75.71
2023-03-20T01:53:48.064Z,75.68
2023-03-20T01:56:15.881Z,75.25
2023-03-20T01:58:51.618Z,75.17
2023-03-20T02:01:19.312Z,73.71
2023-03-20T02:03:49.934Z,72.30
2023-03-20T02:06:22.232Z,72.17
2023-03-20T02:09:09.755Z,71.16
2023-03-20T02:11:42.691Z,70.52
2023-03-20T02:14:09.885Z,69.64
2023-03-20T02:16:47.650Z,70.00
2023-03-20T02:19:46.784Z,68.86
2023-03-20T02:22:19.765Z,67.58
2023-03-20T02:24:47.060Z,67.70
2023-03-20T02:27:30.442Z,67.05
2023-03-20T02:30:03.570Z,67.25
2023-03-20T02:32:50.522Z,65.59
2023-03-20T02:35:18.556Z,65.31
2023-03-20T02:37:59.641Z,65.16
2023-03-20T02:40:29.660Z,64.04
2023-03-20T02:43:05.024Z,62.59
2023-03-20T02:45:38.764Z,63.03
2023-03-20T02:48:24.695Z,62.44
2023-03-20T02:50:59.182Z,61.75
2023-03-20T02:53:40.666Z,62.73
2023-03-20T02:56:07.655Z,62.99
2023-03-20T02:58:50.831Z,61.72
2023-03-20T03:01:20.852Z,62.55
2023-03-20T03:03:58.759Z,62.81
2023-03-20T03:06:32.938Z,64.03
2023-03-20T03:09:12.252Z,63.89
2023-03-20T03:11:44.167Z,63.99
2023-03-20T03:14:17.556Z,63.73
2023-03-20T03:16:45.908Z,65.16
2023-03-20T03:19:18.979Z,64.99
2023-03-20T03:21:47.635Z,67.61
2023-03-20T03:24:41.315Z,69.36
2023-03-20T03:27:19.189Z,68.37
2023-03-20T03:29:48.812Z,68.45
2023-03-20T03:32:42.021Z,66.77
2023-03-20T03:35:14.648Z,66.22
2023-03-20T03:37:54.534Z,65.41
2023-03-20T03:40:28.512Z,65.60
2023-03-20T03:42:58.404Z,66.05
2023-03-20T03:45:31.781Z,66.54
2023-03-20T03:48:05.446Z,68.49
2023-03-20T03:50:57.822Z,68.82
2023-03-20T03:53:28.013Z,69.24
2023-03-20T03:55:58.017Z,70.31
2023-03-20T03:58:30.589Z,70.47
2023-03-20T04:01:01.610Z,70.44
2023-03-20T04:03:35.538Z,69.24
2023-03-20T04:06:03.381Z,68.93
2023-03-20T04:08:34.146Z,67.86
2023-03-20T04:11:01.107Z,67.07
2023-03-20T04:13:29.808Z,67.35
2023-03-20T04:15:57.538Z,67.41
2023-03-20T04:18:27.290Z,68.39
2023-03-20T04:20:54.993Z,68.80
2023-03-20T04:23:22.249Z,68.90
2023-03-20T04:25:49.630Z,69.00
2023-03-20T04:28:16.800Z,68.46
2023-03-20T04:30:57.878Z,68.36
2023-03-20T04:36:26.390Z,69.26
2023-03-20T04:38:57.568Z,69.98
2023-03-20T04:41:25.813Z,69.99
2023-03-20T04:43:56.948Z,68.66
2023-03-20T04:46:25.856Z,67.89
2023-03-20T04:51:34.439Z,68.39
2023-03-20T04:54:01.451Z,68.16
2023-03-20T04:56:38.578Z,68.29
2023-03-20T04:59:14.149Z,67.30
2023-03-20T05:01:41.782Z,67.00
2023-03-20T05:04:09.378Z,66.39
2023-03-20T05:06:37.243Z,66.65
2023-03-20T05:09:04.813Z,66.86
2023-03-20T05:11:34.345Z,66.38
2023-03-20T05:14:12.635Z,66.33
2023-03-20T05:17:07.145Z,65.71
2023-03-20T05:19:57.542Z,64.56
2023-03-20T05:22:38.150Z,65.00
2023-03-20T05:25:25.735Z,64.14
2023-03-20T05:28:11.199Z,64.64
2023-03-20T05:30:57.084Z,64.05
2023-03-20T05:33:34.348Z,64.58
2023-03-20T05:36:28.648Z,63.78
2023-03-20T05:39:15.865Z,63.31
2023-03-20T05:41:51.769Z,63.45
2023-03-20T05:44:38.917Z,62.72
2023-03-20T05:47:26.102Z,62.92
2023-03-20T05:50:11.942Z,62.90
2023-03-20T05:52:52.713Z,62.71
2023-03-20T05:55:23.925Z,62.34
2023-03-20T05:58:00.202Z,62.52
2023-03-20T06:00:41.448Z,61.77
2023-03-20T06:03:37.489Z,61.69
2023-03-20T06:06:11.232Z,61.43
2023-03-20T07:57:58.188Z,51.92
2023-03-20T08:23:47.359Z,51.54
2023-03-20T08:29:02.830Z,50.78
2023-03-20T08:34:14.217Z,49.19
2023-03-20T08:36:41.372Z,48.69
2023-03-20T08:39:08.569Z,49.55
2023-03-20T08:41:39.204Z,48.39
2023-03-20T08:44:06.280Z,47.83
2023-03-20T08:46:33.180Z,49.17
2023-03-20T08:49:00.855Z,48.45
2023-03-20T08:51:27.797Z,46.57
2023-03-20T08:53:54.909Z,47.07
2023-03-20T08:56:21.775Z,45.86
2023-03-20T08:58:48.721Z,46.12
2023-03-20T09:01:15.776Z,45.25
2023-03-20T09:03:42.607Z,45.36
2023-03-20T09:06:10.151Z,45.00
2023-03-20T09:08:37.109Z,44.81
2023-03-20T09:11:04.590Z,45.04
2023-03-20T09:13:31.482Z,45.88
2023-03-20T09:15:58.521Z,45.98
2023-03-20T09:18:26.054Z,46.65
2023-03-20T09:20:53.124Z,46.04
2023-03-20T09:23:20.088Z,46.28
2023-03-20T09:25:47.287Z,46.77
2023-03-20T09:28:14.233Z,45.89
2023-03-20T09:30:43.844Z,45.99
2023-03-20T09:33:11.640Z,46.01
2023-03-20T09:35:38.676Z,46.18
2023-03-20T09:38:05.618Z,46.85
2023-03-20T09:40:49.956Z,46.52
2023-03-20T09:43:22.927Z,45.96
2023-03-20T09:46:07.176Z,45.79
2023-03-20T09:48:54.769Z,46.49
2023-03-20T09:51:22.492Z,46.77
2023-03-20T09:53:56.385Z,46.40
2023-03-20T09:56:25.442Z,46.15
2023-03-20T09:58:54.741Z,45.98
2023-03-20T10:01:24.300Z,46.39
2023-03-20T10:03:57.260Z,46.87
2023-03-20T10:06:24.303Z,46.42
2023-03-20T10:08:52.155Z,46.87
2023-03-20T10:11:19.202Z,46.34
2023-03-20T10:14:05.012Z,46.87
2023-03-20T10:16:32.198Z,46.17
2023-03-20T10:19:05.018Z,46.24
2023-03-20T10:21:55.012Z,46.22
2023-03-20T10:24:27.810Z,46.80
2023-03-20T10:26:56.309Z,46.93
2023-03-20T10:29:30.753Z,46.98
2023-03-20T10:32:03.548Z,46.65
2023-03-20T10:34:33.380Z,47.08
2023-03-20T10:37:03.378Z,47.29
2023-03-20T10:39:30.202Z,46.91
2023-03-20T10:41:59.138Z,47.49
2023-03-20T10:44:32.057Z,47.59
2023-03-20T10:47:01.996Z,47.74
2023-03-20T10:49:28.896Z,47.71
2023-03-20T10:52:01.001Z,47.25
2023-03-20T10:54:31.282Z,47.36
2023-03-20T10:57:00.111Z,47.30
2023-03-20T10:59:34.615Z,47.08
2023-03-20T11:02:01.660Z,47.41
2023-03-20T11:04:30.002Z,46.94
2023-03-20T11:07:13.644Z,47.83
2023-03-20T11:09:41.062Z,47.88
2023-03-20T11:12:20.358Z,47.91
2023-03-20T11:14:48.554Z,47.08
2023-03-20T11:17:19.306Z,47.44
2023-03-20T11:19:46.916Z,47.96
2023-03-20T11:22:26.175Z,47.67
2023-03-20T11:24:59.301Z,47.99
2023-03-20T11:27:28.591Z,47.63
2023-03-20T11:29:58.167Z,47.17
2023-03-20T11:32:37.120Z,47.78
2023-03-20T11:35:12.232Z,47.32
2023-03-20T11:37:43.803Z,47.43
2023-03-20T11:40:23.124Z,47.99
2023-03-20T11:42:54.332Z,48.03
2023-03-20T11:45:21.431Z,47.91
2023-03-20T11:47:53.029Z,48.39
2023-03-20T11:50:41.346Z,47.64
2023-03-20T11:53:48.120Z,46.89
2023-03-20T11:56:21.415Z,46.13
2023-03-20T11:58:59.779Z,46.12
2023-03-20T12:01:28.163Z,44.47
2023-03-20T12:03:58.138Z,44.10
2023-03-20T12:06:26.493Z,44.03
2023-03-20T12:09:02.718Z,43.62
2023-03-20T12:11:48.647Z,43.42
2023-03-20T12:14:28.362Z,43.27
2023-03-20T12:17:12.213Z,41.51
2023-03-20T12:19:40.705Z,40.75
2023-03-20T12:22:22.878Z,41.45
2023-03-20T12:24:53.404Z,41.35
2023-03-20T12:27:20.310Z,41.76
2023-03-20T12:29:52.868Z,41.32
2023-03-20T12:32:32.096Z,40.87
2023-03-20T12:35:04.171Z,41.86
2023-03-20T12:37:32.486Z,41.81
2023-03-20T12:40:01.024Z,41.48
2023-03-20T12:42:35.966Z,40.70
2023-03-20T12:45:18.892Z,40.55
2023-03-20T12:47:55.712Z,40.16
2023-03-20T12:50:36.729Z,39.73
2023-03-20T12:53:10.290Z,39.70
2023-03-20T12:56:03.672Z,39.16
2023-03-20T12:58:30.722Z,39.86
2023-03-20T13:01:00.500Z,40.98
2023-03-20T13:03:44.907Z,40.83
2023-03-20T13:06:19.295Z,40.49
2023-03-20T13:09:04.703Z,41.58
2023-03-20T13:11:40.984Z,40.45
2023-03-20T13:14:20.299Z,41.85
2023-03-20T13:16:53.868Z,42.21
2023-03-20T13:19:32.795Z,41.64
2023-03-20T13:22:15.589Z,42.32
2023-03-20T13:24:48.747Z,42.01
2023-03-20T13:27:22.786Z,41.67
2023-03-20T13:29:58.937Z,42.99
2023-03-20T13:32:36.591Z,42.73
2023-03-20T13:35:18.825Z,43.27
2023-03-20T13:37:52.346Z,43.25
2023-03-20T13:40:23.799Z,44.41
2023-03-20T13:42:53.591Z,43.38
2023-03-20T13:45:20.643Z,43.83
2023-03-20T13:47:48.866Z,44.16
2023-03-20T13:50:25.304Z,45.83
2023-03-20T13:53:24.504Z,45.39
2023-03-20T13:56:01.261Z,44.58
2023-03-20T13:58:56.512Z,44.99
2023-03-20T14:01:55.938Z,45.29
2023-03-20T14:04:25.061Z,44.81
2023-03-20T14:06:54.079Z,45.93
2023-03-20T14:09:32.824Z,46.22
2023-03-20T14:12:01.447Z,46.05
2023-03-20T14:14:30.137Z,47.02
2023-03-20T14:17:08.688Z,47.04
2023-03-20T14:19:37.066Z,47.37
2023-03-20T14:22:04.615Z,48.12
2023-03-20T14:24:35.004Z,48.78
2023-03-20T14:27:02.256Z,49.02
2023-03-20T14:29:29.360Z,49.62
2023-03-20T14:32:16.034Z,50.00
2023-03-20T14:34:47.374Z,50.38
2023-03-20T14:37:28.216Z,50.79
2023-03-20T14:40:15.238Z,50.88
2023-03-20T14:43:00.569Z,50.83
2023-03-20T14:45:35.982Z,50.87
2023-03-20T14:48:13.922Z,50.78
2023-03-20T14:50:47.535Z,50.98
2023-03-20T14:53:26.971Z,51.23
2023-03-20T14:55:56.948Z,51.76
2023-03-20T14:58:43.520Z,52.28
2023-03-20T15:01:23.886Z,52.98
2023-03-20T15:03:53.092Z,53.12
2023-03-20T15:06:21.322Z,53.88
2023-03-20T15:08:53.656Z,53.87
2023-03-20T15:11:21.470Z,54.50
2023-03-20T15:13:49.590Z,54.53
2023-03-20T15:16:17.254Z,54.96
2023-03-20T15:18:45.734Z,54.92
2023-03-20T15:21:29.093Z,55.59
2023-03-20T15:23:56.145Z,55.47
2023-03-20T15:26:25.520Z,56.43
2023-03-20T15:28:58.464Z,57.02
2023-03-20T15:31:30.977Z,56.50
2023-03-20T15:33:58.224Z,56.97
2023-03-20T15:36:26.324Z,57.17
2023-03-20T15:38:53.539Z,57.41
2023-03-20T15:41:30.742Z,58.05
2023-03-20T15:44:18.490Z,57.78
2023-03-20T15:47:02.969Z,58.22
2023-03-20T15:49:31.771Z,58.60
2023-03-20T15:52:02.245Z,58.60
2023-03-20T15:54:38.141Z,59.40
2023-03-20T15:57:05.692Z,59.33
2023-03-20T15:59:35.332Z,59.74
2023-03-20T16:02:02.644Z,59.36
2023-03-20T16:04:29.661Z,59.39
2023-03-20T16:07:00.872Z,59.80
2023-03-20T16:09:28.300Z,60.13
2023-03-20T16:11:56.943Z,59.85
2023-03-20T16:14:26.373Z,60.21
2023-03-20T16:16:55.193Z,60.07
2023-03-20T16:19:22.502Z,61.23
2023-03-20T16:21:51.864Z,60.86
2023-03-20T16:24:28.747Z,61.12
2023-03-20T16:26:57.412Z,61.17
2023-03-20T16:29:28.468Z,61.53
2023-03-20T16:31:59.068Z,61.43
2023-03-20T16:34:33.022Z,61.50
2023-03-20T16:37:03.169Z,61.77
2023-03-20T16:39:33.624Z,61.21
2023-03-20T16:42:11.925Z,61.58
2023-03-20T16:44:40.674Z,61.32
2023-03-20T16:47:11.235Z,61.70
2023-03-20T16:49:44.328Z,61.75
2023-03-20T16:52:14.921Z,61.97
2023-03-20T16:54:41.983Z,62.11
2023-03-20T16:57:09.951Z,62.18
2023-03-20T16:59:39.086Z,62.09
2023-03-20T17:02:26.931Z,62.01
2023-03-20T17:05:01.665Z,62.30
2023-03-20T17:07:32.202Z,62.66
2023-03-20T17:09:59.544Z,62.86
2023-03-20T17:12:28.157Z,62.42
2023-03-20T17:14:55.642Z,63.04
2023-03-20T17:17:25.275Z,62.73
2023-03-20T17:19:55.339Z,62.96
2023-03-20T17:22:23.887Z,62.57
2023-03-20T17:24:51.719Z,62.91
2023-03-20T17:27:19.386Z,63.91
2023-03-20T17:29:47.540Z,63.33
2023-03-20T17:32:23.993Z,63.84
2023-03-20T17:34:53.820Z,63.32
2023-03-20T17:37:30.304Z,63.78
2023-03-20T17:40:03.244Z,64.48
2023-03-20T17:42:31.812Z,65.19
2023-03-20T17:45:03.850Z,64.31
2023-03-20T17:47:33.558Z,64.25
2023-03-20T17:50:01.795Z,63.91
2023-03-20T17:52:30.164Z,64.41
2023-03-20T17:55:04.567Z,64.18
2023-03-20T17:57:32.936Z,64.11
2023-03-20T18:00:03.518Z,64.95
2023-03-20T18:02:33.973Z,64.80
2023-03-20T18:05:01.754Z,64.31
2023-03-20T18:07:31.208Z,64.35
2023-03-20T18:09:58.113Z,64.55
2023-03-20T18:12:25.513Z,64.13
2023-03-20T18:14:52.501Z,64.42
2023-03-20T18:17:19.434Z,64.04
2023-03-20T18:19:46.460Z,63.79
2023-03-20T18:22:13.519Z,64.01
2023-03-20T18:24:42.809Z,64.21
2023-03-20T18:27:12.063Z,63.91
2023-03-20T18:29:38.919Z,64.33
2023-03-20T18:32:05.979Z,63.98
2023-03-20T18:34:33.478Z,64.70
2023-03-20T18:37:04.775Z,65.10
2023-03-20T18:39:31.863Z,66.54
2023-03-20T18:41:58.911Z,65.63
2023-03-20T18:44:25.980Z,65.86
2023-03-20T18:46:52.952Z,65.72
2023-03-20T18:49:20.485Z,65.37
2023-03-20T18:51:50.345Z,65.24
2023-03-20T18:54:17.340Z,65.49
2023-03-20T18:56:47.462Z,65.37
2023-03-20T18:59:15.514Z,65.45
2023-03-20T19:01:42.790Z,65.07
2023-03-20T19:04:11.863Z,65.17
2023-03-20T19:06:38.805Z,65.05
2023-03-20T19:09:06.262Z,64.82
2023-03-20T19:11:33.212Z,65.09
2023-03-20T19:14:02.968Z,65.16
2023-03-20T19:16:32.016Z,65.30
2023-03-20T19:19:01.602Z,65.06
2023-03-20T19:21:29.938Z,65.18
2023-03-20T19:24:00.728Z,65.06
2023-03-20T19:26:29.394Z,65.48
2023-03-20T19:28:57.896Z,65.30
2023-03-20T19:31:28.769Z,65.38
2023-03-20T19:33:59.665Z,65.71
2023-03-20T19:36:28.147Z,65.22
2023-03-20T19:38:57.384Z,65.49
2023-03-20T19:41:24.584Z,65.39
2023-03-20T19:43:55.366Z,65.55
2023-03-20T19:46:38.791Z,65.59
2023-03-20T19:49:17.376Z,65.28
2023-03-20T19:51:45.132Z,64.91
2023-03-20T19:54:12.244Z,65.46
2023-03-20T19:56:39.347Z,65.52
2023-03-20T19:59:06.309Z,65.41
2023-03-20T20:01:33.189Z,65.30
2023-03-20T20:04:00.134Z,65.09
2023-03-20T20:06:31.629Z,64.84
2023-03-20T20:09:00.053Z,65.16
2023-03-20T20:11:27.148Z,65.20
2023-03-20T20:14:06.803Z,65.63
2023-03-20T20:16:37.800Z,65.44
2023-03-20T20:19:05.273Z,65.60
2023-03-20T20:24:19.607Z,65.24
2023-03-20T20:26:55.012Z,65.04
2023-03-20T20:29:24.968Z,65.35
2023-03-20T20:31:52.032Z,65.37
2023-03-20T20:39:53.812Z,64.85
2023-03-20T20:42:20.901Z,65.01
2023-03-20T20:44:47.922Z,64.97
2023-03-20T20:47:15.967Z,65.03
2023-03-20T20:49:43.345Z,64.32
2023-03-20T20:52:10.497Z,64.89
2023-03-20T20:54:37.692Z,65.14
2023-03-20T20:57:04.614Z,64.54
2023-03-20T20:59:31.560Z,64.86
2023-03-20T21:01:58.532Z,65.15
2023-03-20T21:04:25.830Z,64.59
2023-03-20T21:07:10.608Z,64.04
2023-03-20T21:09:38.264Z,64.59
2023-03-20T21:12:05.856Z,64.75
2023-03-20T21:14:32.905Z,65.01
2023-03-20T21:17:01.463Z,65.53
2023-03-20T21:19:29.490Z,65.27
2023-03-20T21:21:56.580Z,64.95
2023-03-20T21:24:32.397Z,64.70
2023-03-20T21:27:01.426Z,64.72
2023-03-20T21:29:28.382Z,65.37
2023-03-20T21:31:55.389Z,64.77
2023-03-20T21:34:22.435Z,65.73
2023-03-20T21:36:51.356Z,65.20
2023-03-20T21:39:19.168Z,65.83
2023-03-20T21:41:46.429Z,65.39
2023-03-20T21:44:17.751Z,65.35
2023-03-20T21:56:02.537Z,65.90
2023-03-20T22:01:23.137Z,65.49
2023-03-20T22:04:06.300Z,65.68
2023-03-20T22:15:28.766Z,65.96
2023-03-20T22:17:59.745Z,65.85
2023-03-20T22:20:58.837Z,66.02
2023-03-20T22:37:46.587Z,65.86
2023-03-20T22:43:02.383Z,65.82
2023-03-20T22:45:34.441Z,65.63
2023-03-20T22:48:09.890Z,65.58
2023-03-20T22:50:39.038Z,65.55
2023-03-20T22:53:05.991Z,65.30
2023-03-20T22:55:33.421Z,66.10
2023-03-20T22:58:07.267Z,65.83
2023-03-20T23:00:34.928Z,65.59
2023-03-20T23:03:33.489Z,65.81
2023-03-20T23:05:49.218Z,66.03
2023-03-20T23:08:16.259Z,66.64
2023-03-20T23:10:44.538Z,66.49
2023-03-20T23:13:11.741Z,66.60
2023-03-20T23:15:38.686Z,66.44
2023-03-20T23:18:06.040Z,66.63
2023-03-20T23:20:33.185Z,66.68
2023-03-20T23:23:00.113Z,67.15
2023-03-20T23:25:38.269Z,66.85
2023-03-20T23:28:07.086Z,66.56
2023-03-20T23:30:44.193Z,66.96
2023-03-20T23:33:13.596Z,67.42
2023-03-20T23:35:40.606Z,67.48
2023-03-20T23:38:07.615Z,67.61
2023-03-20T23:40:34.866Z,67.96
2023-03-20T23:43:02.049Z,67.54
2023-03-20T23:45:28.938Z,67.74
2023-03-20T23:47:55.817Z,67.83
2023-03-20T23:50:34.012Z,67.93
2023-03-20T23:53:19.547Z,67.69
2023-03-20T23:55:48.007Z,67.61
2023-03-20T23:58:15.074Z,68.16
